UASS 150730Z 03004MPS 340V060 CAVOK 33/16 Q1004 NOSIG RMK QFE735/0980
QNH:(hPa/inHg/mmHg)1004 / 29.65 / 753
QFE:(hPa/inHg/mmHg)976 / 28.81 / 732
Temperature33
Dew Point16
Visibility> 10000
WeatherCAVOK
Cloud Cover
Transition Altitude10000 ft.
Transition LevelFL120
SQUAWK